Time;durP1;ratioP1;P1;durP2;ratioP2;P2;SDS_P1;SDS_P2;PMS_P1;PMS_P2;Temp;Humidity;BMP_temperature;BMP_pressure;BME280_temperature;BME280_humidity;BME280_pressure;Samples;Min_cycle;Max_cycle;Signal;HPM_P1;HPM_P2
2022/10/05 00:00:15;;;;;;;24.33;14.18;;;;;;;13.58;91.99;101665.44;5135000;27;20458;-45
2022/10/05 00:02:41;;;;;;;24.02;13.82;;;;;;;13.57;92.30;101665.38;5135452;27;20039;-43
2022/10/05 00:05:29;;;;;;;25.80;15.02;;;;;;;13.59;91.93;101668.91;5135633;27;20046;-46
2022/10/05 00:08:01;;;;;;;25.88;15.10;;;;;;;13.57;92.16;101666.25;5134531;27;20386;-44
2022/10/05 00:10:28;;;;;;;23.80;15.27;;;;;;;13.57;92.38;101670.53;5135619;27;20093;-43
2022/10/05 00:12:53;;;;;;;23.67;14.88;;;;;;;13.58;92.43;101661.94;5135102;27;20373;-46
2022/10/05 00:15:21;;;;;;;26.73;15.15;;;;;;;13.57;92.56;101660.19;5134454;27;20029;-45
2022/10/05 00:17:46;;;;;;;25.17;15.02;;;;;;;13.56;92.83;101658.47;5135306;27;20054;-46
2022/10/05 00:20:19;;;;;;;27.13;14.55;;;;;;;13.56;92.65;101663.63;5135270;27;20111;-44
2022/10/05 00:22:44;;;;;;;25.83;15.05;;;;;;;13.56;92.90;101648.97;5134496;27;20027;-43
2022/10/05 00:25:13;;;;;;;26.70;15.52;;;;;;;13.55;92.89;101646.34;5135179;27;20027;-47
2022/10/05 00:27:39;;;;;;;26.90;15.30;;;;;;;13.54;93.13;101648.03;5134103;27;20463;-44
2022/10/05 00:30:10;;;;;;;34.58;15.55;;;;;;;13.54;93.09;101647.16;5135003;27;20102;-44
2022/10/05 00:32:36;;;;;;;22.00;14.65;;;;;;;13.53;93.13;101650.56;5134778;27;20351;-43
2022/10/05 00:35:01;;;;;;;23.77;15.55;;;;;;;13.54;93.09;101649.75;5134067;27;20034;-43
2022/10/05 00:37:26;;;;;;;30.85;15.75;;;;;;;13.53;93.13;101645.41;5135059;27;20038;-44
2022/10/05 00:39:52;;;;;;;29.73;16.73;;;;;;;13.53;92.93;101642.81;5134742;27;20026;-43
2022/10/05 00:42:35;;;;;;;29.90;16.55;;;;;;;13.52;93.34;101641.03;5134104;27;20084;-43
2022/10/05 00:45:26;;;;;;;28.00;16.27;;;;;;;13.53;92.94;101645.41;5134747;27;20058;-44
2022/10/05 00:48:13;;;;;;;27.08;16.48;;;;;;;13.49;93.41;101642.72;5122795;27;20142;-44
2022/10/05 00:50:52;;;;;;;27.25;17.10;;;;;;;13.49;93.57;101647.00;5133696;27;20031;-44
2022/10/05 00:53:35;;;;;;;24.98;15.98;;;;;;;13.47;93.69;101644.38;5134914;27;20096;-45
2022/10/05 00:56:31;;;;;;;28.83;15.57;;;;;;;13.46;93.69;101642.63;5134012;27;20337;-45
2022/10/05 00:59:17;;;;;;;24.77;16.25;;;;;;;13.47;93.59;101644.38;5134629;27;20034;-44
2022/10/05 01:01:55;;;;;;;28.50;15.68;;;;;;;13.45;93.83;101640.88;5134412;27;20031;-44
2022/10/05 01:04:25;;;;;;;;;;;;;;;13.52;92.45;101635.84;5134558;27;20423;-43
2022/10/05 01:07:05;;;;;;;22.38;15.68;;;;;;;13.43;93.91;101634.75;5134421;27;19962;-44
2022/10/05 01:10:11;;;;;;;24.92;15.93;;;;;;;13.43;93.94;101634.75;5134087;27;20057;-48
2022/10/05 01:12:51;;;;;;;28.27;15.45;;;;;;;13.39;94.21;101635.50;5134396;27;20050;-46
2022/10/05 01:15:38;;;;;;;28.60;16.30;;;;;;;13.38;94.32;101623.38;5134369;27;20088;-45
2022/10/05 01:18:09;;;;;;;25.75;16.35;;;;;;;13.36;94.64;101617.22;5133527;27;20030;-48
2022/10/05 01:20:48;;;;;;;28.52;16.58;;;;;;;13.34;94.94;101616.34;5133986;27;20462;-45
2022/10/05 01:23:51;;;;;;;26.20;16.45;;;;;;;13.31;94.77;101609.34;5134322;27;20106;-46
2022/10/05 01:26:43;;;;;;;24.38;16.75;;;;;;;13.30;94.80;101614.47;5134016;27;20027;-45
2022/10/05 01:29:22;;;;;;;25.83;16.48;;;;;;;13.25;95.20;101605.69;5134081;27;20427;-44
2022/10/05 01:32:09;;;;;;;29.30;17.50;;;;;;;13.25;95.31;101603.13;5132993;27;20461;-44
2022/10/05 01:34:40;;;;;;;26.57;16.20;;;;;;;13.24;95.22;101609.13;5133746;27;20028;-47
2022/10/05 01:37:17;;;;;;;26.30;16.92;;;;;;;13.21;95.35;101609.00;5134114;27;20031;-43
2022/10/05 01:39:59;;;;;;;30.23;18.30;;;;;;;13.19;95.71;101606.38;5133008;27;20042;-45
2022/10/05 01:42:41;;;;;;;23.98;16.10;;;;;;;13.17;95.95;101601.16;5134090;27;20106;-44
2022/10/05 01:45:21;;;;;;;26.60;16.65;;;;;;;13.16;95.85;101601.97;5133038;27;20047;-43
2022/10/05 01:47:57;;;;;;;29.40;16.38;;;;;;;13.15;96.23;101599.34;5133846;28;20035;-43
2022/10/05 01:50:40;;;;;;;27.50;16.85;;;;;;;13.15;96.27;101596.75;5133991;28;20030;-46
2022/10/05 01:53:45;;;;;;;25.75;16.15;;;;;;;13.15;96.23;101591.59;5133094;28;20106;-43
2022/10/05 01:56:23;;;;;;;28.15;16.65;;;;;;;13.13;96.43;101591.53;5133869;28;20023;-44
2022/10/05 01:58:57;;;;;;;28.88;16.38;;;;;;;13.12;96.43;101584.59;5133675;28;20028;-45
2022/10/05 02:01:44;;;;;;;29.02;16.92;;;;;;;13.12;96.55;101584.59;5133479;28;20382;-44
2022/10/05 02:04:16;;;;;;;30.00;17.00;;;;;;;13.08;96.74;101569.81;5134001;28;20031;-46
2022/10/05 02:06:45;;;;;;;26.70;15.82;;;;;;;13.07;97.01;101565.47;5132682;28;20027;-44
2022/10/05 02:09:14;;;;;;;29.83;17.52;;;;;;;13.06;96.74;101563.69;5133779;28;20023;-43
2022/10/05 02:11:42;;;;;;;26.15;16.80;;;;;;;13.05;96.87;101561.06;5133475;28;20035;-43
2022/10/05 02:14:11;;;;;;;26.95;17.38;;;;;;;13.03;97.25;101558.44;5132689;28;20386;-44
2022/10/05 02:16:40;;;;;;;28.52;17.35;;;;;;;13.04;97.22;101560.22;5133523;28;20031;-43
2022/10/05 02:19:13;;;;;;;26.02;17.95;;;;;;;13.02;97.19;101560.13;5133724;28;20035;-44
2022/10/05 02:21:41;;;;;;;27.05;17.70;;;;;;;13.04;97.26;101569.66;5132565;28;20114;-44
2022/10/05 02:24:21;;;;;;;24.38;16.77;;;;;;;13.06;97.25;101557.66;5133619;28;20039;-46
2022/10/05 02:26:50;;;;;;;27.60;17.23;;;;;;;13.02;97.48;101546.31;5133191;28;20019;-44
2022/10/05 02:29:20;;;;;;;28.95;17.48;;;;;;;13.03;97.30;101548.09;5133559;28;20030;-44
2022/10/05 02:31:52;;;;;;;26.13;16.45;;;;;;;13.04;97.44;101546.38;5133381;28;20031;-43
2022/10/05 02:34:41;;;;;;;26.92;16.48;;;;;;;13.05;97.27;101549.00;5132902;28;20369;-44
2022/10/05 02:37:19;;;;;;;25.10;16.92;;;;;;;13.07;97.24;101537.00;5135589;27;20023;-44
2022/10/05 02:40:03;;;;;;;25.67;16.52;;;;;;;13.08;96.90;101528.41;5137225;27;20023;-44
2022/10/05 02:43:03;;;;;;;26.77;16.45;;;;;;;13.10;96.82;101529.31;5136439;27;20396;-44
2022/10/05 02:45:49;;;;;;;28.63;17.50;;;;;;;13.11;96.78;101531.06;5136960;27;20509;-43
2022/10/05 02:48:27;;;;;;;28.83;16.80;;;;;;;13.09;97.03;101525.00;5136556;27;20035;-46
2022/10/05 02:51:11;;;;;;;25.58;17.65;;;;;;;13.10;96.73;101524.13;5136962;27;20023;-47
2022/10/05 02:54:01;;;;;;;27.98;16.48;;;;;;;13.09;97.16;101524.09;5136853;27;20470;-44
2022/10/05 02:56:55;;;;;;;28.77;16.67;;;;;;;13.09;97.20;101517.22;5136129;27;20387;-44
2022/10/05 02:59:38;;;;;;;27.90;16.52;;;;;;;13.06;97.17;101511.94;5137063;27;20083;-45
2022/10/05 03:02:28;;;;;;;26.25;16.15;;;;;;;13.07;97.29;101512.84;5136863;27;20068;-44
2022/10/05 03:04:58;;;;;;;28.60;15.98;;;;;;;13.04;97.38;101511.03;5136862;27;20024;-44
2022/10/05 03:07:47;;;;;;;23.15;15.85;;;;;;;13.02;97.62;101502.34;5136948;27;20027;-46
2022/10/05 03:10:34;;;;;;;32.60;17.38;;;;;;;13.00;97.75;101497.13;5135865;27;20386;-44
2022/10/05 03:13:05;;;;;;;24.45;16.55;;;;;;;12.99;98.05;101499.66;5136926;27;20034;-43
2022/10/05 03:16:08;;;;;;;27.33;15.98;;;;;;;13.00;97.48;101501.41;5136380;27;20042;-44
2022/10/05 03:18:51;;;;;;;25.55;15.25;;;;;;;12.98;97.75;101498.78;5135587;27;20118;-48
2022/10/05 03:21:35;;;;;;;20.45;15.02;;;;;;;13.00;97.96;101493.63;5136581;27;20429;-43
2022/10/05 03:24:29;;;;;;;27.58;16.40;;;;;;;12.99;98.15;101494.50;5135820;27;20081;-43
2022/10/05 03:27:04;;;;;;;24.63;16.55;;;;;;;12.98;98.01;101496.19;5124895;27;20035;-44
2022/10/05 03:29:47;;;;;;;26.63;15.70;;;;;;;12.96;98.12;101489.22;5136561;27;20037;-45
2022/10/05 03:32:44;;;;;;;26.83;16.10;;;;;;;12.99;98.19;101502.25;5135637;27;20050;-44
2022/10/05 03:35:17;;;;;;;23.83;15.85;;;;;;;12.98;98.21;101500.50;5136249;27;20035;-45
2022/10/05 03:38:01;;;;;;;25.70;16.00;;;;;;;12.98;98.09;101503.09;5135086;27;20027;-44
2022/10/05 03:40:38;;;;;;;26.95;15.73;;;;;;;12.94;98.23;101491.75;5136287;27;20019;-44
2022/10/05 03:43:22;;;;;;;29.17;15.77;;;;;;;12.95;98.50;101492.63;5136106;27;20021;-44
2022/10/05 03:46:07;;;;;;;23.45;15.35;;;;;;;12.92;98.63;101489.97;5134898;27;20078;-46
2022/10/05 03:48:50;;;;;;;27.05;15.90;;;;;;;12.91;98.68;101490.78;5135779;27;20031;-44
2022/10/05 03:51:34;;;;;;;26.60;15.93;;;;;;;12.92;98.47;101492.53;5136095;27;20029;-43
2022/10/05 03:54:10;;;;;;;25.17;15.45;;;;;;;12.89;99.06;101488.16;5135903;27;20026;-44
2022/10/05 03:56:46;;;;;;;23.20;15.93;;;;;;;12.89;99.14;101492.47;5135746;27;20027;-44
2022/10/05 03:59:16;;;;;;;22.42;14.88;;;;;;;12.88;98.90;101491.56;5135272;27;20076;-46
2022/10/05 04:01:48;;;;;;;24.98;15.25;;;;;;;12.87;99.04;101489.81;5135471;27;20027;-45
2022/10/05 04:04:23;;;;;;;21.77;14.82;;;;;;;12.90;99.19;101494.19;5135487;27;20110;-44
2022/10/05 04:06:51;;;;;;;27.10;17.25;;;;;;;12.91;99.14;101490.78;5134523;27;20050;-43
2022/10/05 04:09:22;;;;;;;27.63;16.10;;;;;;;12.91;98.93;101490.78;5135601;27;20423;-43
2022/10/05 04:11:53;;;;;;;27.05;16.45;;;;;;;12.92;98.80;101487.38;5135538;27;20023;-44
2022/10/05 04:14:36;;;;;;;26.38;16.08;;;;;;;12.95;98.75;101497.78;5134904;27;20027;-44
2022/10/05 04:17:08;;;;;;;23.65;15.95;;;;;;;12.92;98.93;101495.13;5135306;27;20034;-45
2022/10/05 04:19:42;;;;;;;25.35;16.17;;;;;;;12.91;99.30;101501.13;5135370;27;20019;-45
2022/10/05 04:22:16;;;;;;;23.73;14.80;;;;;;;12.88;99.75;101493.28;5135535;27;20026;-45
2022/10/05 04:25:20;;;;;;;27.48;16.95;;;;;;;12.90;99.21;101482.16;5135029;27;20469;-44
2022/10/05 04:28:04;;;;;;;25.83;16.08;;;;;;;12.90;99.38;101489.91;5050109;27;20054;-47
2022/10/05 04:30:31;;;;;;;24.65;16.80;;;;;;;12.87;99.43;101497.56;5135330;27;20155;-46
2022/10/05 04:32:59;;;;;;;27.73;17.08;;;;;;;12.89;99.24;101487.28;5135235;27;20015;-44
2022/10/05 04:35:39;;;;;;;26.60;15.85;;;;;;;12.88;99.26;101480.34;5134160;27;20034;-43
2022/10/05 04:38:16;;;;;;;28.58;17.48;;;;;;;12.88;99.52;101480.34;5135144;27;20038;-46
2022/10/05 04:40:50;;;;;;;28.55;16.45;;;;;;;12.87;99.49;101486.34;5134973;27;20019;-43
2022/10/05 04:43:30;;;;;;;25.85;17.52;;;;;;;12.87;99.39;101465.66;5135079;27;20031;-45
2022/10/05 04:46:32;;;;;;;23.67;15.68;;;;;;;12.88;99.25;101476.03;5134714;27;20050;-45
2022/10/05 04:49:09;;;;;;;27.35;16.75;;;;;;;12.89;99.07;101476.94;5134136;27;20084;-44
2022/10/05 04:51:49;;;;;;;27.52;15.95;;;;;;;12.87;99.07;101476.88;5134606;27;20027;-43
2022/10/05 04:54:29;;;;;;;25.80;16.13;;;;;;;12.87;99.31;101473.41;5134824;27;20385;-48
2022/10/05 04:56:58;;;;;;;24.50;14.80;;;;;;;12.88;98.81;101470.00;5133713;27;20076;-43
2022/10/05 05:00:01;;;;;;;24.90;15.45;;;;;;;12.90;98.56;101473.50;5134168;27;20072;-45
2022/10/05 05:02:45;;;;;;;24.30;15.20;;;;;;;12.90;97.87;101466.63;5133879;27;20027;-44
2022/10/05 05:05:25;;;;;;;20.80;14.25;;;;;;;12.92;97.63;101464.09;5134524;27;20058;-48
2022/10/05 05:08:11;;;;;;;24.52;13.57;;;;;;;12.94;97.35;101465.88;5134383;27;20084;-43
2022/10/05 05:11:03;;;;;;;18.13;13.23;;;;;;;12.94;97.29;101465.88;5133442;27;20492;-44
2022/10/05 05:14:02;;;;;;;20.48;12.80;;;;;;;12.96;96.82;101469.41;5134387;27;20030;-44
2022/10/05 05:16:40;;;;;;;18.90;12.23;;;;;;;12.95;96.78;101466.75;5133343;27;20458;-45
2022/10/05 05:19:36;;;;;;;21.20;11.95;;;;;;;12.99;95.97;101463.44;5134339;27;20050;-43
2022/10/05 05:22:16;;;;;;;18.30;11.70;;;;;;;12.98;95.82;101461.69;5134434;27;20023;-45
2022/10/05 05:24:55;;;;;;;16.48;11.15;;;;;;;13.00;95.71;101470.34;5133414;27;20034;-44
2022/10/05 05:27:47;;;;;;;19.60;11.77;;;;;;;13.02;95.97;101464.38;5134221;27;20096;-43
2022/10/05 05:30:19;;;;;;;16.88;11.88;;;;;;;13.01;95.80;101462.66;5133289;27;20470;-44
2022/10/05 05:33:14;;;;;;;18.35;11.52;;;;;;;13.03;95.76;101462.69;5134054;27;20028;-44
2022/10/05 05:36:15;;;;;;;19.33;11.80;;;;;;;13.02;95.77;101458.34;5125321;27;20504;-43
2022/10/05 05:38:52;;;;;;;19.10;11.50;;;;;;;13.00;95.66;101450.56;5059550;28;20136;-43
2022/10/05 05:41:52;;;;;;;18.02;11.23;;;;;;;13.01;95.62;101441.06;5134089;27;20023;-46
2022/10/05 05:44:23;;;;;;;17.38;11.70;;;;;;;12.97;95.96;101455.63;5118761;28;20019;-45
2022/10/05 05:46:55;;;;;;;19.48;11.95;;;;;;;12.97;95.82;101449.56;5133420;27;20071;-45
2022/10/05 05:49:40;;;;;;;20.25;11.77;;;;;;;12.97;96.18;101454.75;5133910;28;20533;-46
2022/10/05 05:52:17;;;;;;;19.45;11.68;;;;;;;12.96;96.23;101451.28;5133134;28;20023;-46
2022/10/05 05:54:57;;;;;;;20.13;11.53;;;;;;;12.96;96.37;101453.88;5133655;28;20027;-46
2022/10/05 05:57:37;;;;;;;26.38;11.38;;;;;;;12.96;96.00;101455.56;5134014;28;20023;-45
2022/10/05 06:00:06;;;;;;;19.98;10.95;;;;;;;12.96;95.89;101442.63;5132995;28;20031;-46
2022/10/05 06:02:51;;;;;;;17.30;10.63;;;;;;;12.96;96.23;101434.88;5133451;28;20036;-48
2022/10/05 06:05:31;;;;;;;19.15;10.73;;;;;;;12.94;95.90;101439.16;5132726;28;20386;-47
2022/10/05 06:08:00;;;;;;;18.55;10.40;;;;;;;12.94;96.13;101446.91;5133910;28;20020;-49
2022/10/05 06:10:37;;;;;;;16.95;11.00;;;;;;;12.94;96.02;101440.00;5134769;27;20027;-48
2022/10/05 06:13:10;;;;;;;16.27;10.32;;;;;;;12.95;96.12;101446.94;5137079;27;20031;-48
2022/10/05 06:15:41;;;;;;;17.92;10.90;;;;;;;12.96;95.72;101445.22;5137492;27;20499;-49
2022/10/05 06:18:13;;;;;;;16.30;9.00;;;;;;;12.98;95.21;101443.56;5137987;27;20062;-48
2022/10/05 06:20:49;;;;;;;14.43;8.95;;;;;;;13.00;95.13;101444.47;5136813;27;20023;-49
2022/10/05 06:23:28;;;;;;;16.33;10.05;;;;;;;13.00;94.90;101439.31;5137830;27;20124;-48
2022/10/05 06:26:12;;;;;;;16.38;9.98;;;;;;;13.01;94.86;101441.06;5137392;27;20091;-46
2022/10/05 06:28:37;;;;;;;16.25;9.20;;;;;;;13.01;94.89;101441.06;5137001;27;20019;-48
2022/10/05 06:31:28;;;;;;;15.27;9.45;;;;;;;13.02;95.07;101440.25;5137642;27;20030;-47
2022/10/05 06:34:04;;;;;;;14.63;9.32;;;;;;;13.01;95.00;101441.06;5136408;27;20358;-45
2022/10/05 06:36:42;;;;;;;14.50;9.13;;;;;;;13.04;94.54;101441.19;5137288;27;20023;-45
2022/10/05 06:39:17;;;;;;;;;;;;;;;13.09;94.36;101439.59;5138007;27;20054;-46
2022/10/05 06:42:04;;;;;;;15.93;9.32;;;;;;;13.09;93.95;101444.78;5136541;27;19941;-49
2022/10/05 06:44:42;;;;;;;15.03;9.03;;;;;;;13.11;93.99;101443.09;5137286;27;20389;-47
2022/10/05 06:47:27;;;;;;;13.95;8.70;;;;;;;13.14;94.00;101439.72;5137000;27;20310;-48
2022/10/05 06:50:37;;;;;;;16.85;9.18;;;;;;;13.20;93.82;101437.31;5137155;27;20027;-47
2022/10/05 06:53:26;;;;;;;13.90;8.95;;;;;;;13.22;93.69;101434.75;5056869;27;20058;-46
2022/10/05 06:56:34;;;;;;;11.88;8.82;;;;;;;13.26;93.48;101436.59;5136110;27;20055;-47
2022/10/05 06:59:17;;;;;;;21.10;9.45;;;;;;;13.26;93.27;101447.84;5137052;27;20031;-47
2022/10/05 07:02:20;;;;;;;16.23;9.65;;;;;;;13.33;93.25;101448.88;5135724;27;20181;-49
2022/10/05 07:05:07;;;;;;;13.48;9.20;;;;;;;13.32;92.85;101453.19;5136822;27;20023;-48
2022/10/05 07:07:48;;;;;;;15.55;9.43;;;;;;;13.33;93.14;101447.16;5136666;27;20453;-48
2022/10/05 07:10:19;;;;;;;15.13;9.52;;;;;;;13.37;93.14;101455.06;5136406;27;20043;-44
2022/10/05 07:12:58;;;;;;;14.80;8.63;;;;;;;13.40;92.88;101448.25;5136694;27;20068;-47
2022/10/05 07:15:48;;;;;;;17.13;9.27;;;;;;;13.47;92.85;101452.75;5136674;27;20034;-47
2022/10/05 07:18:44;;;;;;;17.08;9.80;;;;;;;13.53;92.08;101445.97;5136619;27;20075;-46
2022/10/05 07:21:34;;;;;;;16.42;9.02;;;;;;;13.58;91.90;101449.56;5136727;27;20141;-48
2022/10/05 07:24:30;;;;;;;15.07;8.68;;;;;;;13.64;91.50;101449.75;5135415;27;20023;-48
2022/10/05 07:27:14;;;;;;;13.48;8.13;;;;;;;13.69;91.31;101457.66;5136376;27;20465;-48
2022/10/05 07:29:52;;;;;;;13.77;8.60;;;;;;;13.73;91.11;101454.31;5135454;27;20432;-46
2022/10/05 07:32:34;;;;;;;14.90;8.07;;;;;;;13.77;91.59;101453.53;5136362;27;20539;-47
2022/10/05 07:37:52;;;;;;;15.43;8.75;;;;;;;13.80;91.03;101457.09;5136183;27;20023;-43
2022/10/05 07:37:57;;;;;;;14.00;7.75;;;;;;;13.83;90.68;101462.34;5135073;27;20027;-47
2022/10/05 07:40:36;;;;;;;12.18;8.45;;;;;;;13.88;90.55;101458.97;5136024;27;20023;-48
2022/10/05 07:43:20;;;;;;;12.52;7.90;;;;;;;13.88;90.18;101458.97;5136220;27;20019;-49
2022/10/05 07:46:16;;;;;;;15.63;7.82;;;;;;;13.96;90.50;101457.50;5134831;27;20566;-47
2022/10/05 07:48:50;;;;;;;13.98;8.18;;;;;;;14.00;90.35;101459.31;5135648;27;20553;-49
2022/10/05 07:51:30;;;;;;;14.27;7.60;;;;;;;14.08;89.89;101456.91;5135068;27;20031;-48
2022/10/05 07:54:14;;;;;;;17.05;7.88;;;;;;;14.10;89.61;101461.28;5135952;27;20019;-47
2022/10/05 07:56:42;;;;;;;11.98;7.78;;;;;;;14.18;89.15;101463.19;5135749;27;20058;-48
2022/10/05 07:59:37;;;;;;;12.95;7.95;;;;;;;14.19;89.15;101462.34;5135219;27;20068;-47
2022/10/05 08:02:32;;;;;;;14.80;7.40;;;;;;;14.23;89.33;101457.28;5124412;27;20493;-49
2022/10/05 08:05:10;;;;;;;14.82;8.55;;;;;;;14.24;89.19;101458.16;5120201;27;20039;-46
2022/10/05 08:07:36;;;;;;;14.85;8.40;;;;;;;14.26;88.60;101456.50;5135505;27;20035;-47
2022/10/05 08:10:05;;;;;;;15.32;8.30;;;;;;;14.29;88.66;101454.84;5135608;27;20032;-48
2022/10/05 08:13:10;;;;;;;15.10;7.63;;;;;;;14.39;89.05;101453.34;5134586;27;20027;-43
2022/10/05 08:15:46;;;;;;;12.65;7.07;;;;;;;14.50;88.58;101461.38;5052235;27;20432;-47
2022/10/05 08:18:35;;;;;;;15.27;7.65;;;;;;;14.53;88.12;101450.22;5135514;27;20681;-47
2022/10/05 08:21:01;;;;;;;13.73;8.00;;;;;;;14.52;87.46;101443.25;5134516;27;20470;-48
2022/10/05 08:23:37;;;;;;;10.60;7.68;;;;;;;14.58;87.72;101443.41;5135546;27;20029;-47
2022/10/05 08:26:11;;;;;;;12.05;7.88;;;;;;;14.62;87.47;101440.91;5134688;27;20023;-49
2022/10/05 08:28:58;;;;;;;13.43;7.63;;;;;;;14.69;87.11;101441.94;5135176;27;20031;-47
2022/10/05 08:31:32;;;;;;;10.43;7.07;;;;;;;14.86;86.81;101446.63;5135173;27;20047;-47
2022/10/05 08:34:26;;;;;;;14.25;8.13;;;;;;;14.92;87.00;101433.78;5133222;27;20466;-48
2022/10/05 08:37:17;;;;;;;13.25;7.70;;;;;;;14.96;86.40;101436.50;5134860;27;20027;-47
2022/10/05 08:40:10;;;;;;;12.60;7.38;;;;;;;15.02;85.39;101430.53;5134667;27;20045;-49
2022/10/05 08:42:49;;;;;;;11.82;6.90;;;;;;;15.06;84.81;101437.53;5134774;27;20034;-47
2022/10/05 08:45:44;;;;;;;10.48;7.03;;;;;;;15.08;85.26;101424.59;5134770;27;20096;-48
2022/10/05 08:48:33;;;;;;;11.55;6.80;;;;;;;15.12;84.82;101422.09;5134305;27;20055;-49
2022/10/05 08:51:17;;;;;;;13.27;7.00;;;;;;;15.12;84.49;101426.44;5135025;27;20027;-49
2022/10/05 08:53:51;;;;;;;14.77;6.78;;;;;;;15.19;84.43;101424.81;5134516;27;20027;-47
2022/10/05 08:56:38;;;;;;;12.85;6.93;;;;;;;15.22;84.40;101419.69;5133734;27;20027;-48
2022/10/05 08:59:38;;;;;;;15.65;8.05;;;;;;;15.39;83.85;101420.88;5134805;27;20039;-49
2022/10/05 09:02:18;;;;;;;12.73;7.65;;;;;;;15.47;83.26;101419.31;5101257;27;20069;-49
2022/10/05 09:04:57;;;;;;;11.13;6.63;;;;;;;15.51;83.16;101416.78;5134518;27;20031;-47
2022/10/05 09:07:37;;;;;;;12.38;6.15;;;;;;;15.59;83.37;101413.44;5134640;27;20039;-47
2022/10/05 09:10:21;;;;;;;12.82;6.80;;;;;;;15.58;82.31;101405.63;5133635;27;20600;-48
2022/10/05 09:13:24;;;;;;;12.82;6.20;;;;;;;15.63;82.12;101404.88;5134173;27;20072;-46
2022/10/05 09:16:22;;;;;;;11.77;5.85;;;;;;;15.69;81.52;101411.91;5133380;27;20046;-47
2022/10/05 09:19:21;;;;;;;12.38;5.97;;;;;;;15.67;81.61;101405.78;5134104;27;20470;-49
2022/10/05 09:21:58;;;;;;;10.68;6.57;;;;;;;15.75;81.98;101404.22;5134019;27;20370;-49
2022/10/05 09:24:48;;;;;;;9.55;5.88;;;;;;;15.76;81.99;101400.78;5133542;27;20024;-46
2022/10/05 09:27:18;;;;;;;12.52;6.43;;;;;;;15.86;81.81;101406.16;5134214;27;20065;-48
2022/10/05 09:30:25;;;;;;;23.30;14.32;;;;;;;15.98;81.39;101408.94;5133581;27;20038;-47
2022/10/05 09:33:03;;;;;;;13.73;5.78;;;;;;;15.97;80.98;101407.19;5099417;27;20501;-46
2022/10/05 09:35:34;;;;;;;;;;;;;;;16.11;80.87;101403.09;5134475;27;20458;-47
2022/10/05 09:38:37;;;;;;;15.93;7.18;;;;;;;16.13;81.06;101401.38;5133235;27;19918;-49
2022/10/05 09:41:33;;;;;;;21.05;10.50;;;;;;;16.20;80.07;101396.28;5134228;27;20030;-48
2022/10/05 09:44:36;;;;;;;12.27;6.63;;;;;;;16.32;79.98;101396.47;5133191;27;20027;-48
2022/10/05 09:47:33;;;;;;;11.35;7.10;;;;;;;16.35;79.60;101395.66;5133484;27;20184;-50
2022/10/05 09:50:23;;;;;;;13.27;6.35;;;;;;;16.35;78.85;101400.84;5133886;27;20379;-48
2022/10/05 09:53:03;;;;;;;11.18;6.00;;;;;;;16.30;78.13;101392.97;5133859;28;20028;-49
2022/10/05 09:55:44;;;;;;;14.32;8.15;;;;;;;16.27;79.01;101387.72;5133945;28;20022;-48
2022/10/05 09:58:29;;;;;;;11.52;7.13;;;;;;;16.39;79.25;101377.47;5133154;28;20056;-48
2022/10/05 10:01:04;;;;;;;11.73;6.32;;;;;;;16.29;78.11;101365.19;5133426;28;20023;-49
2022/10/05 10:04:08;;;;;;;9.98;5.47;;;;;;;16.35;79.10;101372.22;5133801;28;20555;-49
2022/10/05 10:07:07;;;;;;;10.25;5.65;;;;;;;16.44;79.06;101368.00;5132728;28;20453;-47
2022/10/05 10:10:07;;;;;;;9.77;5.60;;;;;;;16.48;77.80;101362.88;5133474;28;20037;-46
2022/10/05 10:12:51;;;;;;;14.15;6.10;;;;;;;16.51;78.38;101370.72;5132713;28;20030;-48
2022/10/05 10:15:34;;;;;;;11.77;6.05;;;;;;;16.58;78.00;101368.22;5133485;28;20070;-48
2022/10/05 10:18:15;;;;;;;10.40;5.82;;;;;;;16.59;77.30;101369.06;5133589;28;20454;-49
2022/10/05 10:21:18;;;;;;;11.52;5.40;;;;;;;16.82;77.52;101353.75;5132551;28;20023;-48
2022/10/05 10:23:59;;;;;;;10.88;5.95;;;;;;;16.94;76.53;101353.06;5133270;28;20449;-45
2022/10/05 10:26:55;;;;;;;9.75;5.13;;;;;;;17.08;76.55;101354.09;5132750;28;20415;-48
2022/10/05 10:29:39;;;;;;;16.67;6.05;;;;;;;17.16;75.33;101350.69;5133715;28;20031;-48
2022/10/05 10:32:38;;;;;;;13.38;5.93;;;;;;;17.29;75.87;101342.16;5133530;28;20031;-48
2022/10/05 10:35:13;;;;;;;11.18;5.22;;;;;;;17.98;73.10;101341.88;5133535;28;20082;-49
2022/10/05 10:38:10;;;;;;;11.77;4.53;;;;;;;18.56;72.30;101332.63;5133273;28;20033;-45
2022/10/05 10:40:43;;;;;;;9.88;5.13;;;;;;;18.56;69.14;101327.41;5132414;28;20080;-49
2022/10/05 10:43:42;;;;;;;9.30;4.55;;;;;;;18.86;70.84;101333.59;5133565;28;20020;-49
2022/10/05 10:46:16;;;;;;;14.80;5.30;;;;;;;19.07;67.93;101330.22;5133169;28;20482;-49
2022/10/05 10:48:52;;;;;;;9.63;5.15;;;;;;;18.87;67.49;101338.81;5132468;28;20063;-48
2022/10/05 10:51:53;;;;;;;8.48;4.47;;;;;;;18.66;69.20;101325.72;5133526;28;20042;-49
2022/10/05 10:54:35;;;;;;;8.23;4.70;;;;;;;18.54;70.23;101318.69;5132541;28;20031;-47
2022/10/05 10:57:14;;;;;;;11.43;5.43;;;;;;;18.31;69.83;101327.28;5133377;27;20079;-48
2022/10/05 11:00:00;;;;;;;11.02;5.25;;;;;;;18.39;70.81;101314.28;5137009;27;20041;-48
2022/10/05 11:02:46;;;;;;;9.63;4.45;;;;;;;18.65;69.95;101319.59;5136357;27;20035;-48
2022/10/05 11:05:26;;;;;;;14.83;4.90;;;;;;;18.79;69.46;101313.56;5136935;27;20031;-48
2022/10/05 11:08:19;;;;;;;12.35;5.78;;;;;;;18.67;69.78;101312.66;5136272;27;20142;-49
2022/10/05 11:11:13;;;;;;;8.50;4.60;;;;;;;18.54;69.18;101297.78;5136600;27;20050;-49
2022/10/05 11:14:12;;;;;;;10.25;7.22;;;;;;;18.49;70.01;101309.97;5136382;27;20478;-48
2022/10/05 11:17:15;;;;;;;9.38;4.35;;;;;;;18.29;70.69;101300.31;5135703;27;20035;-48
2022/10/05 11:20:03;;;;;;;10.18;4.13;;;;;;;18.10;70.11;101308.03;5136395;27;20027;-48
2022/10/05 11:22:40;;;;;;;;;;;;;;;18.27;70.79;101304.66;5136362;27;20035;-46
2022/10/05 11:25:30;;;;;;;10.30;4.63;;;;;;;18.26;70.63;101298.56;5136997;27;19919;-48
2022/10/05 11:28:08;;;;;;;9.07;4.18;;;;;;;18.40;70.60;101295.16;5136413;27;20046;-47
2022/10/05 11:31:07;;;;;;;9.93;4.22;;;;;;;18.47;70.00;101290.81;5135289;27;20027;-48
2022/10/05 11:33:54;;;;;;;11.20;4.00;;;;;;;18.88;69.98;101290.09;5136166;27;20088;-49
2022/10/05 11:36:41;;;;;;;12.90;4.47;;;;;;;19.24;68.84;101285.81;5135464;27;20076;-49
2022/10/05 11:39:32;;;;;;;10.27;4.10;;;;;;;19.22;66.91;101269.25;5136437;27;20030;-48
2022/10/05 11:42:19;;;;;;;10.52;3.92;;;;;;;18.68;68.08;101270.03;5136336;27;20055;-49
2022/10/05 11:44:56;;;;;;;20.23;4.05;;;;;;;19.06;67.29;101264.03;5135119;27;20087;-49
2022/10/05 11:47:33;;;;;;;7.60;3.83;;;;;;;19.40;66.89;101256.19;5136159;27;20100;-47
2022/10/05 11:50:25;;;;;;;11.23;4.07;;;;;;;19.52;67.46;101262.28;5135465;27;20019;-48
2022/10/05 11:53:00;;;;;;;11.75;3.80;;;;;;;19.87;65.64;101256.16;5135793;27;20470;-49
2022/10/05 11:55:36;;;;;;;9.95;4.00;;;;;;;20.16;64.64;101248.22;5135798;27;20023;-47
2022/10/05 11:58:11;;;;;;;10.27;3.70;;;;;;;20.23;63.66;101249.06;5135248;27;20023;-48
2022/10/05 12:00:59;;;;;;;9.25;3.58;;;;;;;20.03;63.66;101241.28;5135762;27;20098;-50
2022/10/05 12:03:36;;;;;;;13.77;3.53;;;;;;;19.78;63.77;101232.59;5135897;27;20024;-46
2022/10/05 12:06:45;;;;;;;10.63;3.65;;;;;;;20.60;63.54;101237.53;5135291;27;20031;-49
2022/10/05 12:09:23;;;;;;;8.30;3.00;;;;;;;21.00;61.73;101222.44;5135520;27;20039;-48
2022/10/05 12:12:25;;;;;;;8.32;2.92;;;;;;;21.22;60.56;101214.41;5134686;27;20106;-48
2022/10/05 12:15:13;;;;;;;7.85;3.30;;;;;;;21.86;58.70;101214.69;5135488;27;20084;-49
2022/10/05 12:17:50;;;;;;;6.93;3.03;;;;;;;21.32;58.22;101208.19;5135377;27;20102;-48
2022/10/05 12:20:45;;;;;;;8.73;3.33;;;;;;;20.97;60.03;101204.13;5134711;27;20378;-46
2022/10/05 12:23:29;;;;;;;7.63;2.90;;;;;;;21.11;60.72;101211.91;5135590;27;20034;-49